createdAt,value
2019-05-09T00:01:34.945Z,1.80
2019-05-09T00:04:04.251Z,1.50
2019-05-09T00:06:34.095Z,1.43
2019-05-09T00:09:03.873Z,1.40
2019-05-09T00:11:33.676Z,1.40
2019-05-09T00:14:04.494Z,1.10
2019-05-09T00:16:33.695Z,1.77
2019-05-09T00:19:03.478Z,1.40
2019-05-09T00:21:40.238Z,1.57
2019-05-09T00:24:09.375Z,1.27
2019-05-09T00:26:38.544Z,1.30
2019-05-09T00:29:14.074Z,2.27
2019-05-09T00:32:14.281Z,1.30
2019-05-09T00:34:53.377Z,1.47
2019-05-09T00:37:43.191Z,1.20
2019-05-09T00:40:13.205Z,1.10
2019-05-09T00:42:44.038Z,1.23
2019-05-09T00:45:23.886Z,0.93
2019-05-09T00:47:53.936Z,1.13
2019-05-09T00:50:23.592Z,1.07
2019-05-09T00:52:53.726Z,1.00
2019-05-09T00:55:23.894Z,1.10
2019-05-09T00:57:53.590Z,1.80
2019-05-09T01:00:24.298Z,1.17
2019-05-09T01:02:54.292Z,1.33
2019-05-09T01:05:24.013Z,2.50
2019-05-09T01:07:53.895Z,3.10
2019-05-09T01:10:23.842Z,1.40
2019-05-09T01:12:54.222Z,0.90
2019-05-09T01:15:24.079Z,0.67
2019-05-09T01:17:53.848Z,0.83
2019-05-09T01:20:24.201Z,0.70
2019-05-09T01:22:54.196Z,0.77
2019-05-09T01:25:24.064Z,1.00
2019-05-09T01:27:53.988Z,0.43
2019-05-09T01:30:24.186Z,0.70
2019-05-09T01:33:24.609Z,1.00
2019-05-09T01:35:54.150Z,0.70
2019-05-09T01:38:23.359Z,0.50
2019-05-09T01:40:53.316Z,0.70
2019-05-09T01:43:24.426Z,0.73
2019-05-09T01:45:54.022Z,0.67
2019-05-09T01:48:23.474Z,0.50
2019-05-09T01:50:53.760Z,0.60
2019-05-09T01:53:28.039Z,0.30
2019-05-09T01:56:00.493Z,0.40
2019-05-09T01:58:33.861Z,1.27
2019-05-09T02:01:05.449Z,0.33
2019-05-09T02:03:34.549Z,0.40
2019-05-09T02:06:03.853Z,0.60
2019-05-09T02:08:34.390Z,0.40
2019-05-09T02:11:04.127Z,0.57
2019-05-09T02:13:33.951Z,0.90
2019-05-09T02:16:30.018Z,0.57
2019-05-09T02:19:06.964Z,0.50
2019-05-09T02:21:36.138Z,0.63
2019-05-09T02:24:05.335Z,0.67
2019-05-09T02:26:34.467Z,0.70
2019-05-09T02:29:03.629Z,0.60
2019-05-09T02:31:35.370Z,0.70
2019-05-09T02:34:04.965Z,0.67
2019-05-09T02:36:34.492Z,0.50
2019-05-09T02:39:04.381Z,0.43
2019-05-09T02:41:33.507Z,0.43
2019-05-09T02:44:02.680Z,0.63
2019-05-09T02:46:38.645Z,0.50
2019-05-09T02:49:08.791Z,0.53
2019-05-09T02:51:38.910Z,0.77
2019-05-09T02:54:10.023Z,0.50
2019-05-09T02:56:39.220Z,0.60
2019-05-09T02:59:29.704Z,0.67
2019-05-09T03:02:09.558Z,1.10
2019-05-09T03:04:39.225Z,0.80
2019-05-09T03:07:09.760Z,0.57
2019-05-09T03:09:39.192Z,0.67
2019-05-09T03:12:23.097Z,0.93
2019-05-09T03:14:39.534Z,0.80
2019-05-09T03:17:09.239Z,0.60
2019-05-09T03:19:38.861Z,0.83
2019-05-09T03:22:13.917Z,0.77
2019-05-09T03:24:43.532Z,0.83
2019-05-09T03:27:19.724Z,0.67
2019-05-09T03:29:52.973Z,0.70
2019-05-09T03:32:22.411Z,0.60
2019-05-09T03:34:51.519Z,0.60
2019-05-09T03:37:20.694Z,0.37
2019-05-09T03:39:49.863Z,0.90
2019-05-09T03:42:23.044Z,0.57
2019-05-09T03:44:49.922Z,0.83
2019-05-09T03:47:38.016Z,0.53
2019-05-09T03:50:19.534Z,1.40
2019-05-09T03:52:49.006Z,1.33
2019-05-09T03:55:23.284Z,0.70
2019-05-09T03:57:58.967Z,0.40
2019-05-09T04:00:28.444Z,0.50
2019-05-09T04:02:58.131Z,0.70
2019-05-09T04:05:27.443Z,0.60
2019-05-09T04:07:59.913Z,0.80
2019-05-09T04:10:29.144Z,2.10
2019-05-09T04:12:59.626Z,1.40
2019-05-09T04:15:28.965Z,1.90
2019-05-09T04:17:58.200Z,1.33
2019-05-09T04:20:27.785Z,1.90
2019-05-09T04:22:59.261Z,1.50
2019-05-09T04:25:31.275Z,0.43
2019-05-09T04:28:01.207Z,0.70
2019-05-09T04:30:30.384Z,0.43
2019-05-09T04:32:59.751Z,1.00
2019-05-09T04:35:29.090Z,0.80
2019-05-09T04:37:58.492Z,1.10
2019-05-09T04:40:31.687Z,0.90
2019-05-09T04:43:10.913Z,1.37
2019-05-09T04:45:41.739Z,1.40
2019-05-09T04:48:28.575Z,2.13
2019-05-09T04:50:59.444Z,5.70
2019-05-09T04:53:29.282Z,3.37
2019-05-09T04:56:01.503Z,3.63
2019-05-09T04:58:30.988Z,1.83
2019-05-09T05:01:28.356Z,0.90
2019-05-09T05:03:57.757Z,1.00
2019-05-09T05:06:28.045Z,0.53
2019-05-09T05:08:58.575Z,0.83
2019-05-09T05:11:28.078Z,0.67
2019-05-09T05:13:58.658Z,0.50
2019-05-09T05:16:28.140Z,0.50
2019-05-09T05:18:58.397Z,0.40
2019-05-09T05:21:28.439Z,0.60
2019-05-09T05:24:15.474Z,0.30
2019-05-09T05:26:45.004Z,0.37
2019-05-09T05:29:14.156Z,0.30
2019-05-09T05:31:43.281Z,0.37
2019-05-09T05:34:20.954Z,1.30
2019-05-09T05:36:50.059Z,2.10
2019-05-09T05:39:19.247Z,0.37
2019-05-09T05:41:48.574Z,0.60
2019-05-09T05:44:17.912Z,0.53
2019-05-09T05:47:07.566Z,0.70
2019-05-09T05:49:38.329Z,1.90
2019-05-09T05:52:08.091Z,0.67
2019-05-09T05:54:38.006Z,0.70
2019-05-09T05:57:08.464Z,0.60
2019-05-09T05:59:41.010Z,0.70
2019-05-09T06:02:11.566Z,0.80
2019-05-09T06:04:40.683Z,0.73
2019-05-09T06:07:09.939Z,0.53
2019-05-09T06:09:39.087Z,0.60
2019-05-09T06:12:08.540Z,0.50
2019-05-09T06:14:38.061Z,0.70
2019-05-09T06:17:08.037Z,0.57
2019-05-09T06:19:38.189Z,0.77
2019-05-09T06:22:08.246Z,0.70
2019-05-09T06:24:38.737Z,0.60
2019-05-09T06:27:10.383Z,0.70
2019-05-09T06:29:39.252Z,0.77
2019-05-09T06:32:08.396Z,0.90
2019-05-09T06:34:41.766Z,0.73
2019-05-09T06:37:09.245Z,2.73
2019-05-09T06:39:38.725Z,0.83
2019-05-09T06:42:09.070Z,1.13
2019-05-09T06:44:58.493Z,0.90
2019-05-09T06:47:33.534Z,1.33
2019-05-09T06:50:07.963Z,0.80
2019-05-09T06:52:37.643Z,1.37
2019-05-09T06:55:08.708Z,1.40
2019-05-09T06:57:42.195Z,1.43
2019-05-09T07:00:17.815Z,1.30
2019-05-09T07:03:00.929Z,1.07
2019-05-09T07:05:51.880Z,1.00
2019-05-09T07:08:28.485Z,1.00
2019-05-09T07:10:58.486Z,1.00
2019-05-09T07:13:27.981Z,0.80
2019-05-09T07:15:58.541Z,1.00
2019-05-09T07:18:27.987Z,1.20
2019-05-09T07:20:57.751Z,1.30
2019-05-09T07:23:28.248Z,1.77
2019-05-09T07:26:19.101Z,2.77
2019-05-09T07:28:48.784Z,1.73
2019-05-09T07:31:37.749Z,4.23
2019-05-09T07:34:32.575Z,5.17
2019-05-09T07:37:01.808Z,2.17
2019-05-09T07:39:30.980Z,4.10
2019-05-09T07:42:00.304Z,9.47
2019-05-09T07:44:44.306Z,3.77
2019-05-09T07:47:07.545Z,3.03
2019-05-09T07:49:37.724Z,0.70
2019-05-09T07:52:10.422Z,2.77
2019-05-09T07:54:38.041Z,2.23
2019-05-09T07:57:08.788Z,1.70
2019-05-09T07:59:38.931Z,1.30
2019-05-09T08:02:08.905Z,1.10
2019-05-09T08:04:38.774Z,0.90
2019-05-09T08:07:08.525Z,1.17
2019-05-09T08:09:38.757Z,1.87
2019-05-09T08:12:08.001Z,2.40
2019-05-09T08:14:37.893Z,2.10
2019-05-09T08:17:08.620Z,1.70
2019-05-09T08:19:38.188Z,1.33
2019-05-09T08:22:08.152Z,0.90
2019-05-09T08:24:38.017Z,0.80
2019-05-09T08:27:08.543Z,0.80
2019-05-09T08:29:38.734Z,0.80
2019-05-09T08:32:08.057Z,0.80
2019-05-09T08:34:37.931Z,1.10
2019-05-09T08:37:08.158Z,0.80
2019-05-09T08:39:38.413Z,1.10
2019-05-09T08:42:08.651Z,0.90
2019-05-09T08:44:41.896Z,1.20
2019-05-09T08:47:09.144Z,1.53
2019-05-09T08:50:03.043Z,1.67
2019-05-09T08:52:32.193Z,1.40
2019-05-09T08:55:01.528Z,1.77
2019-05-09T08:57:30.748Z,1.53
2019-05-09T08:59:59.942Z,0.83
2019-05-09T09:02:29.140Z,1.20
2019-05-09T09:04:58.575Z,4.80
2019-05-09T09:07:29.709Z,3.60
2019-05-09T09:09:58.747Z,3.13
2019-05-09T09:12:34.198Z,4.03
2019-05-09T09:14:59.075Z,7.00
2019-05-09T09:17:28.281Z,3.83
2019-05-09T09:19:58.232Z,5.47
2019-05-09T09:22:28.347Z,11.67
2019-05-09T09:24:58.621Z,9.30
2019-05-09T09:27:28.163Z,4.90
2019-05-09T09:29:58.681Z,3.37
2019-05-09T09:32:28.280Z,1.90
2019-05-09T09:34:58.715Z,1.33
2019-05-09T09:37:37.659Z,1.63
2019-05-09T09:39:59.172Z,1.60
2019-05-09T09:42:28.590Z,1.43
2019-05-09T09:44:58.599Z,2.07
2019-05-09T09:47:28.673Z,0.90
2019-05-09T09:50:00.124Z,0.50
2019-05-09T09:52:30.621Z,0.83
2019-05-09T09:54:59.721Z,0.50
2019-05-09T09:57:29.051Z,1.00
2019-05-09T10:00:14.762Z,0.57
2019-05-09T10:02:43.951Z,1.40
2019-05-09T10:05:13.489Z,1.07
2019-05-09T10:07:42.676Z,8.57
2019-05-09T10:10:18.458Z,1.07
2019-05-09T10:12:49.340Z,0.77
2019-05-09T10:15:51.517Z,0.70
2019-05-09T10:18:31.504Z,0.50
2019-05-09T10:21:06.639Z,0.63
2019-05-09T10:23:37.831Z,0.63
2019-05-09T10:26:08.496Z,0.57
2019-05-09T10:28:38.353Z,0.93
2019-05-09T10:31:07.589Z,0.50
2019-05-09T10:33:37.487Z,0.60
2019-05-09T10:36:08.449Z,0.83
2019-05-09T10:38:38.743Z,1.10
2019-05-09T10:41:11.208Z,1.20
2019-05-09T10:43:58.058Z,1.20
2019-05-09T10:46:48.093Z,0.90
2019-05-09T10:49:04.490Z,0.63
2019-05-09T10:51:33.587Z,1.40
2019-05-09T10:54:02.845Z,1.40
2019-05-09T10:56:31.943Z,1.83
2019-05-09T10:59:01.170Z,1.13
2019-05-09T11:01:30.347Z,0.80
2019-05-09T11:03:59.524Z,2.63
2019-05-09T11:06:29.134Z,0.93
2019-05-09T11:08:58.758Z,0.83
2019-05-09T11:11:28.648Z,1.03
2019-05-09T11:13:59.021Z,0.83
2019-05-09T11:16:41.983Z,1.00
2019-05-09T11:18:59.697Z,1.07
2019-05-09T11:21:30.006Z,0.90
2019-05-09T11:23:59.250Z,0.87
2019-05-09T11:26:28.971Z,1.17
2019-05-09T11:29:00.437Z,1.03
2019-05-09T11:31:29.908Z,0.80
2019-05-09T11:33:59.188Z,0.90
2019-05-09T11:36:28.375Z,0.87
2019-05-09T11:39:00.588Z,2.10
2019-05-09T11:41:29.826Z,1.70
2019-05-09T11:43:59.972Z,1.10
2019-05-09T11:46:29.297Z,1.00
2019-05-09T11:48:59.147Z,1.97
2019-05-09T11:51:29.384Z,2.37
2019-05-09T11:53:58.800Z,1.80
2019-05-09T11:56:28.282Z,1.33
2019-05-09T11:58:58.040Z,2.07
2019-05-09T12:01:29.298Z,2.07
2019-05-09T12:03:58.424Z,2.07
2019-05-09T12:06:29.012Z,0.70
2019-05-09T12:08:59.008Z,0.50
2019-05-09T12:11:28.645Z,1.10
2019-05-09T12:13:58.393Z,1.00
2019-05-09T12:16:28.055Z,1.00
2019-05-09T12:18:58.391Z,1.30
2019-05-09T12:21:28.478Z,1.70
2019-05-09T12:23:58.535Z,1.87
2019-05-09T12:26:29.275Z,1.23
2019-05-09T12:28:58.680Z,1.33
2019-05-09T12:31:28.907Z,1.90
2019-05-09T12:33:59.257Z,1.63
2019-05-09T12:36:29.018Z,1.33
2019-05-09T12:38:59.262Z,1.30
2019-05-09T12:41:31.597Z,2.83
2019-05-09T12:43:59.598Z,1.20
2019-05-09T12:46:28.926Z,1.70
2019-05-09T12:48:59.167Z,1.30
2019-05-09T12:51:28.855Z,1.10
2019-05-09T12:53:58.185Z,1.00
2019-05-09T12:56:28.475Z,1.40
2019-05-09T12:58:58.195Z,1.10
2019-05-09T13:01:27.515Z,2.13
2019-05-09T13:03:58.242Z,1.20
2019-05-09T13:06:29.232Z,0.87
2019-05-09T13:08:58.882Z,0.80
2019-05-09T13:11:28.324Z,0.87
2019-05-09T13:13:57.515Z,0.67
2019-05-09T13:16:48.485Z,1.17
2019-05-09T13:19:12.133Z,1.00
2019-05-09T13:21:41.301Z,1.00
2019-05-09T13:24:10.564Z,0.97
2019-05-09T13:26:39.780Z,1.10
2019-05-09T13:29:09.191Z,0.60
2019-05-09T13:31:39.692Z,1.23
2019-05-09T13:34:09.059Z,0.60
2019-05-09T13:36:38.313Z,0.40
2019-05-09T13:39:10.736Z,0.50
2019-05-09T13:41:40.547Z,0.40
2019-05-09T13:44:13.605Z,0.73
2019-05-09T13:46:40.842Z,1.03
2019-05-09T13:49:14.882Z,0.40
2019-05-09T13:51:49.518Z,0.63
2019-05-09T13:54:12.188Z,0.40
2019-05-09T13:56:41.514Z,0.80
2019-05-09T13:59:10.842Z,0.70
2019-05-09T14:01:40.050Z,0.80
2019-05-09T14:04:09.397Z,0.70
2019-05-09T14:06:39.052Z,0.83
2019-05-09T14:09:10.539Z,0.60
2019-05-09T14:11:40.115Z,0.50
2019-05-09T14:14:09.419Z,0.60
2019-05-09T14:16:39.266Z,0.70
2019-05-09T14:19:30.264Z,0.50
2019-05-09T14:21:39.460Z,0.90
2019-05-09T14:24:14.843Z,0.47
2019-05-09T14:26:39.675Z,0.60
2019-05-09T14:29:12.939Z,0.33
2019-05-09T14:31:40.181Z,0.70
2019-05-09T14:34:09.380Z,0.50
2019-05-09T14:36:44.250Z,0.50
2019-05-09T14:39:10.020Z,0.67
2019-05-09T14:41:39.461Z,0.40
2019-05-09T14:44:09.563Z,0.57
2019-05-09T14:46:39.328Z,1.20
2019-05-09T14:49:09.485Z,0.30
2019-05-09T14:51:38.830Z,1.80
2019-05-09T14:54:08.611Z,0.70
2019-05-09T14:56:41.881Z,0.90
2019-05-09T14:59:09.720Z,1.00
2019-05-09T15:01:43.656Z,0.77
2019-05-09T15:04:10.205Z,1.10
2019-05-09T15:06:39.507Z,0.57
2019-05-09T15:09:09.358Z,0.43
2019-05-09T15:11:39.731Z,0.50
2019-05-09T15:14:09.290Z,0.63
2019-05-09T15:16:39.320Z,0.60
2019-05-09T15:19:08.709Z,0.70
2019-05-09T15:21:38.475Z,0.73
2019-05-09T15:24:09.228Z,0.63
2019-05-09T15:26:38.631Z,1.00
2019-05-09T15:29:08.260Z,1.00
2019-05-09T15:31:39.139Z,1.13
2019-05-09T15:34:10.413Z,0.80
2019-05-09T15:36:39.768Z,0.83
2019-05-09T15:39:09.181Z,0.70
2019-05-09T15:41:38.687Z,0.87
2019-05-09T15:44:08.525Z,1.00
2019-05-09T15:46:48.661Z,0.93
2019-05-09T15:49:18.444Z,1.10
2019-05-09T15:51:47.925Z,0.90
2019-05-09T15:54:18.003Z,0.80
2019-05-09T15:56:48.376Z,1.00
2019-05-09T15:59:18.784Z,2.00
2019-05-09T16:01:49.112Z,0.67
2019-05-09T16:04:18.641Z,1.10
2019-05-09T16:06:50.371Z,1.27
2019-05-09T16:09:18.838Z,0.83
2019-05-09T16:11:48.519Z,1.03
2019-05-09T16:14:18.544Z,1.00
2019-05-09T16:16:48.033Z,0.77
2019-05-09T16:19:18.454Z,1.00
2019-05-09T16:21:48.831Z,1.40
2019-05-09T16:24:19.005Z,1.20
2019-05-09T16:26:48.873Z,1.27
2019-05-09T16:29:18.399Z,1.40
2019-05-09T16:31:48.207Z,1.63
2019-05-09T16:34:17.995Z,1.50
2019-05-09T16:36:48.118Z,1.10
2019-05-09T16:39:18.205Z,1.50
2019-05-09T16:41:48.420Z,1.70
2019-05-09T16:44:18.605Z,2.17
2019-05-09T16:46:48.587Z,1.20
2019-05-09T16:49:19.881Z,1.47
2019-05-09T16:51:49.400Z,1.20
2019-05-09T16:54:19.375Z,1.20
2019-05-09T16:56:48.527Z,1.20
2019-05-09T16:59:18.180Z,1.03
2019-05-09T17:01:50.063Z,1.20
2019-05-09T17:04:19.364Z,1.00
2019-05-09T17:06:49.750Z,0.90
2019-05-09T17:09:19.169Z,1.27
2019-05-09T17:11:48.454Z,1.13
2019-05-09T17:14:19.245Z,1.00
2019-05-09T17:16:52.198Z,1.13
2019-05-09T17:19:19.710Z,1.33
2019-05-09T17:21:58.500Z,1.30
2019-05-09T17:24:29.840Z,1.33
2019-05-09T17:26:58.921Z,1.13
2019-05-09T17:29:28.288Z,1.43
2019-05-09T17:31:58.369Z,1.30
2019-05-09T17:34:28.681Z,2.07
2019-05-09T17:36:58.036Z,2.10
2019-05-09T17:39:27.873Z,1.63
2019-05-09T17:41:58.242Z,1.63
2019-05-09T17:44:28.280Z,1.00
2019-05-09T17:46:58.049Z,1.20
2019-05-09T17:49:28.086Z,1.23
2019-05-09T17:51:58.454Z,2.50
2019-05-09T17:54:28.731Z,1.20
2019-05-09T17:56:58.366Z,1.13
2019-05-09T17:59:29.224Z,0.83
2019-05-09T18:01:58.771Z,1.67
2019-05-09T18:04:28.790Z,1.00
2019-05-09T18:06:58.630Z,1.10
2019-05-09T18:09:28.731Z,1.20
2019-05-09T18:11:58.087Z,1.27
2019-05-09T18:14:27.810Z,1.00
2019-05-09T18:16:58.114Z,1.10
2019-05-09T18:19:29.289Z,1.00
2019-05-09T18:21:58.470Z,0.90
2019-05-09T18:24:28.708Z,0.63
2019-05-09T18:26:58.485Z,1.87
2019-05-09T18:29:27.961Z,0.87
2019-05-09T18:32:16.160Z,0.93
2019-05-09T18:34:52.449Z,1.00
2019-05-09T18:37:20.253Z,1.30
2019-05-09T18:39:49.484Z,0.97
2019-05-09T18:42:18.687Z,0.70
2019-05-09T18:44:48.071Z,0.80
2019-05-09T18:47:18.506Z,0.67
2019-05-09T18:49:48.061Z,0.90
2019-05-09T18:52:17.588Z,0.83
2019-05-09T18:54:47.135Z,0.73
2019-05-09T18:58:01.116Z,0.77
2019-05-09T19:00:38.779Z,0.77
2019-05-09T19:03:15.229Z,0.87
2019-05-09T19:05:44.848Z,1.10
2019-05-09T19:08:14.213Z,1.13
2019-05-09T19:10:43.858Z,0.70
2019-05-09T19:13:16.337Z,1.00
2019-05-09T19:16:10.959Z,1.00
2019-05-09T19:18:59.330Z,0.90
2019-05-09T19:21:38.218Z,1.00
2019-05-09T19:24:07.548Z,2.20
2019-05-09T19:26:36.918Z,1.20
2019-05-09T19:29:08.902Z,1.30
2019-05-09T19:31:38.489Z,1.40
2019-05-09T19:34:07.899Z,1.43
2019-05-09T19:36:37.430Z,1.17
2019-05-09T19:39:10.776Z,1.27
2019-05-09T19:41:40.077Z,1.90
2019-05-09T19:44:09.413Z,1.73
2019-05-09T19:46:38.652Z,1.50
2019-05-09T19:49:08.230Z,1.67
2019-05-09T19:51:37.731Z,1.10
2019-05-09T19:54:06.881Z,1.80
2019-05-09T19:56:36.117Z,2.27
2019-05-09T19:59:07.831Z,1.80
2019-05-09T20:01:36.667Z,1.70
2019-05-09T20:04:06.123Z,1.60
2019-05-09T20:06:35.366Z,1.90
2019-05-09T20:09:08.503Z,1.40
2019-05-09T20:11:56.609Z,1.43
2019-05-09T20:14:34.543Z,1.30
2019-05-09T20:17:03.810Z,1.63
2019-05-09T20:19:33.036Z,1.30
2019-05-09T20:22:02.568Z,1.90
2019-05-09T20:24:32.003Z,1.43
2019-05-09T20:27:01.515Z,1.30
2019-05-09T20:29:30.691Z,1.37
2019-05-09T20:31:59.937Z,1.10
2019-05-09T20:34:29.224Z,1.30
2019-05-09T20:36:58.370Z,1.30
2019-05-09T20:39:30.797Z,1.23
2019-05-09T20:41:58.805Z,1.33
2019-05-09T20:44:28.219Z,1.30
2019-05-09T20:46:57.602Z,1.20
2019-05-09T20:49:27.217Z,1.23
2019-05-09T20:51:56.596Z,1.77
2019-05-09T20:54:26.055Z,2.50
2019-05-09T20:56:55.470Z,2.40
2019-05-09T20:59:24.880Z,1.93
2019-05-09T21:01:54.338Z,2.03
2019-05-09T21:04:23.919Z,2.30
2019-05-09T21:06:53.278Z,2.00
2019-05-09T21:09:22.671Z,1.50
2019-05-09T21:11:52.034Z,1.87
2019-05-09T21:14:21.608Z,1.93
2019-05-09T21:16:51.067Z,1.83
2019-05-09T21:19:20.533Z,2.13
2019-05-09T21:21:49.899Z,2.70
2019-05-09T21:24:19.309Z,2.57
2019-05-09T21:26:48.674Z,2.13
2019-05-09T21:29:18.179Z,1.77
2019-05-09T21:31:47.914Z,2.10
2019-05-09T21:34:17.315Z,1.80
2019-05-09T21:36:46.647Z,1.97
2019-05-09T21:39:15.957Z,2.00
2019-05-09T21:41:45.160Z,1.83
2019-05-09T21:44:14.457Z,2.00
2019-05-09T21:46:43.892Z,1.70
2019-05-09T21:49:13.072Z,1.63
2019-05-09T21:51:42.464Z,1.50
2019-05-09T21:54:11.654Z,2.20
2019-05-09T21:56:40.977Z,2.00
2019-05-09T21:59:10.221Z,2.30
2019-05-09T22:01:39.718Z,2.23
2019-05-09T22:04:14.524Z,2.00
2019-05-09T22:06:44.016Z,2.37
2019-05-09T22:09:13.287Z,1.80
2019-05-09T22:11:42.534Z,2.13
2019-05-09T22:14:11.887Z,2.03
2019-05-09T22:16:41.089Z,1.50
2019-05-09T22:19:10.254Z,1.80
2019-05-09T22:21:39.537Z,2.07
2019-05-09T22:24:08.795Z,1.57
2019-05-09T22:26:38.122Z,2.30
2019-05-09T22:29:07.309Z,1.80
2019-05-09T22:31:36.547Z,1.77
2019-05-09T22:34:05.712Z,2.10
2019-05-09T22:36:34.915Z,1.83
2019-05-09T22:39:05.776Z,3.73
2019-05-09T22:41:35.009Z,1.90
2019-05-09T22:44:04.151Z,1.73
2019-05-09T22:46:33.376Z,2.20
2019-05-09T22:49:02.571Z,2.47
2019-05-09T22:51:32.051Z,2.10
2019-05-09T22:54:12.276Z,1.60
2019-05-09T22:56:32.165Z,1.63
2019-05-09T22:59:01.438Z,2.00
2019-05-09T23:01:30.601Z,1.80
2019-05-09T23:03:59.747Z,1.53
2019-05-09T23:06:28.963Z,1.90
2019-05-09T23:08:58.169Z,2.10
2019-05-09T23:11:27.466Z,1.57
2019-05-09T23:13:56.901Z,1.70
2019-05-09T23:16:27.839Z,1.67
2019-05-09T23:18:57.006Z,1.80
2019-05-09T23:21:28.956Z,1.63
2019-05-09T23:24:01.050Z,1.70
2019-05-09T23:26:30.195Z,1.80
2019-05-09T23:28:59.475Z,1.90
2019-05-09T23:31:47.600Z,2.23
2019-05-09T23:34:16.921Z,2.03
2019-05-09T23:36:46.111Z,1.97
2019-05-09T23:39:19.546Z,1.70
2019-05-09T23:41:48.809Z,2.00
2019-05-09T23:44:18.093Z,1.67
2019-05-09T23:46:47.309Z,1.93
2019-05-09T23:49:16.532Z,1.67
2019-05-09T23:51:46.172Z,1.57
2019-05-09T23:54:45.105Z,1.90
2019-05-09T23:57:23.283Z,1.50
